Time;durP1;ratioP1;P1;durP2;ratioP2;P2;SDS_P1;SDS_P2;PMS_P1;PMS_P2;Temp;Humidity;BMP_temperature;BMP_pressure;BME280_temperature;BME280_humidity;BME280_pressure;Samples;Min_cycle;Max_cycle;Signal;HPM_P1;HPM_P2
2024/01/19 00:00:26;;;;;;;27.60;15.87;;;-1.70;99.90;;;;;;5099816;28;20424;-48
2024/01/19 00:02:54;;;;;;;35.87;17.13;;;-1.70;99.90;;;;;;5097502;28;20932;-49
2024/01/19 00:05:21;;;;;;;34.03;17.70;;;-1.70;99.90;;;;;;5096241;28;20448;-48
2024/01/19 00:07:51;;;;;;;38.60;18.23;;;-1.70;99.90;;;;;;5095537;28;20512;-47
2024/01/19 00:10:17;;;;;;;33.53;16.60;;;-1.80;99.90;;;;;;5096353;28;20421;-49
2024/01/19 00:12:43;;;;;;;29.53;16.40;;;-1.70;99.90;;;;;;5095600;28;20416;-48
2024/01/19 00:15:10;;;;;;;33.33;17.83;;;-1.70;99.90;;;;;;5094877;28;20244;-48
2024/01/19 00:17:37;;;;;;;34.77;18.10;;;-1.80;99.90;;;;;;5096420;28;20185;-48
2024/01/19 00:20:04;;;;;;;33.63;17.00;;;-1.80;99.90;;;;;;5094942;28;20947;-48
2024/01/19 00:22:34;;;;;;;37.27;17.47;;;-1.80;99.90;;;;;;5094863;28;20440;-47
2024/01/19 00:24:59;;;;;;;35.63;18.67;;;-1.80;99.90;;;;;;5096254;28;20424;-48
2024/01/19 00:27:26;;;;;;;37.60;19.67;;;-1.80;99.90;;;;;;5096220;28;20465;-48
2024/01/19 00:30:05;;;;;;;33.23;18.07;;;-1.80;99.90;;;;;;5096588;28;20530;-48
2024/01/19 00:32:31;;;;;;;36.10;18.03;;;-1.80;99.90;;;;;;5096056;28;20508;-47
2024/01/19 00:34:57;;;;;;;32.90;16.10;;;-1.80;99.90;;;;;;5096911;28;20441;-49
2024/01/19 00:37:22;;;;;;;35.70;18.80;;;-1.80;99.90;;;;;;5095029;28;20206;-48
2024/01/19 00:40:00;;;;;;;28.50;15.47;;;-1.80;99.90;;;;;;5094545;28;20180;-49
2024/01/19 00:42:26;;;;;;;33.80;17.73;;;-1.80;99.90;;;;;;5094845;28;20712;-47
2024/01/19 00:44:52;;;;;;;28.63;16.30;;;-1.80;99.90;;;;;;5094290;28;20501;-48
2024/01/19 00:47:18;;;;;;;31.63;17.73;;;-1.80;99.90;;;;;;5095541;28;20297;-48
2024/01/19 00:49:47;;;;;;;32.77;17.10;;;-1.80;99.90;;;;;;5095623;28;20219;-48
2024/01/19 00:52:13;;;;;;;35.27;17.80;;;-1.80;99.90;;;;;;5095112;28;20187;-48
2024/01/19 00:54:39;;;;;;;31.13;16.77;;;-1.80;99.90;;;;;;5095466;28;20532;-48
2024/01/19 00:57:05;;;;;;;31.40;15.67;;;-1.80;99.90;;;;;;5094293;28;20458;-49
2024/01/19 00:59:34;;;;;;;30.47;16.47;;;-1.80;99.90;;;;;;5094181;28;20189;-48
2024/01/19 01:02:01;;;;;;;27.80;14.93;;;-1.90;99.90;;;;;;5093955;28;20249;-47
2024/01/19 01:04:27;;;;;;;32.13;16.40;;;-1.90;99.90;;;;;;5095588;28;20802;-48
2024/01/19 01:06:52;;;;;;;32.47;17.27;;;-1.80;99.90;;;;;;5095243;28;20434;-44
2024/01/19 01:09:21;;;;;;;33.60;17.40;;;-1.80;99.90;;;;;;5093953;28;20253;-45
2024/01/19 01:11:47;;;;;;;30.07;16.73;;;-1.80;99.90;;;;;;5095111;28;20254;-43
2024/01/19 01:14:15;;;;;;;34.10;16.97;;;-1.90;99.90;;;;;;5095500;28;20535;-46
2024/01/19 01:16:41;;;;;;;30.00;17.30;;;-1.90;99.90;;;;;;5093608;28;20571;-45
2024/01/19 01:19:10;;;;;;;34.50;17.30;;;-1.90;99.90;;;;;;5093752;28;20928;-44
2024/01/19 01:21:36;;;;;;;32.33;17.43;;;-1.90;99.90;;;;;;5095156;28;20418;-44
2024/01/19 01:24:02;;;;;;;34.10;17.30;;;-1.80;99.90;;;;;;5093774;28;20843;-43
2024/01/19 01:26:31;;;;;;;41.20;18.27;;;-1.80;99.90;;;;;;5094636;28;20954;-43
2024/01/19 01:28:57;;;;;;;40.30;19.40;;;-1.90;99.90;;;;;;5093450;28;20220;-46
2024/01/19 01:31:22;;;;;;;37.27;18.00;;;-1.80;99.90;;;;;;5093808;28;20413;-45
2024/01/19 01:33:49;;;;;;;37.67;18.67;;;-1.80;99.90;;;;;;5093507;28;20641;-43
2024/01/19 01:36:15;;;;;;;36.20;15.20;;;-1.80;99.90;;;;;;5094591;28;20237;-44
2024/01/19 01:38:43;;;;;;;34.67;16.73;;;-1.80;99.90;;;;;;5076568;28;20460;-44
2024/01/19 01:41:10;;;;;;;37.20;17.30;;;-1.70;99.90;;;;;;5093596;28;20542;-46
2024/01/19 01:43:36;;;;;;;32.33;15.40;;;-1.70;99.90;;;;;;5093565;28;20497;-45
2024/01/19 01:46:02;;;;;;;44.53;18.40;;;-1.70;99.90;;;;;;5093091;28;20983;-46
2024/01/19 01:48:28;;;;;;;38.70;18.27;;;-1.70;99.90;;;;;;5094693;28;20674;-44
2024/01/19 01:50:55;;;;;;;32.03;13.13;;;-1.70;99.90;;;;;;5094889;28;20441;-44
2024/01/19 01:53:25;;;;;;;35.93;15.53;;;-1.60;99.90;;;;;;5093248;28;20421;-44
2024/01/19 01:55:52;;;;;;;31.93;13.97;;;-1.60;99.90;;;;;;5094172;28;20804;-45
2024/01/19 01:58:18;;;;;;;35.43;15.27;;;-1.60;99.90;;;;;;5094293;28;20430;-45
2024/01/19 02:00:47;;;;;;;24.50;12.67;;;-1.60;99.90;;;;;;5093159;28;20419;-45
2024/01/19 02:03:14;;;;;;;28.20;13.43;;;-1.60;99.90;;;;;;5092860;28;20454;-45
2024/01/19 02:05:44;;;;;;;31.90;14.33;;;-1.50;99.90;;;;;;5094642;28;20799;-46
2024/01/19 02:08:10;;;;;;;19.57;8.97;;;-1.60;99.90;;;;;;5093500;28;20469;-43
2024/01/19 02:10:37;;;;;;;30.43;14.10;;;-1.60;99.90;;;;;;5094172;28;20422;-42
2024/01/19 02:13:05;;;;;;;33.33;14.17;;;-1.50;99.90;;;;;;5094771;28;20179;-44
2024/01/19 02:15:33;;;;;;;32.43;14.33;;;-1.50;99.90;;;;;;5092561;28;20531;-45
2024/01/19 02:17:58;;;;;;;29.53;14.40;;;-1.50;99.90;;;;;;5093875;28;20524;-44
2024/01/19 02:20:27;;;;;;;27.93;14.20;;;-1.50;99.90;;;;;;5093824;28;20456;-45
2024/01/19 02:22:55;;;;;;;34.47;15.37;;;-1.50;99.90;;;;;;5093075;28;20188;-46
2024/01/19 02:25:22;;;;;;;29.70;14.30;;;-1.50;99.90;;;;;;5093599;28;20449;-45
2024/01/19 02:27:49;;;;;;;32.03;15.30;;;-1.50;99.90;;;;;;5093147;28;20461;-43
2024/01/19 02:30:14;;;;;;;34.20;14.93;;;-1.50;99.90;;;;;;5094073;28;20236;-44
2024/01/19 02:32:40;;;;;;;18.63;7.97;;;-1.50;99.90;;;;;;5093612;28;20825;-45
2024/01/19 02:35:07;;;;;;;40.23;14.77;;;-1.40;99.90;;;;;;5093546;28;20577;-45
2024/01/19 02:37:37;;;;;;;28.67;14.17;;;-1.40;99.90;;;;;;5076141;28;20628;-44
2024/01/19 02:40:05;;;;;;;38.03;16.40;;;-1.40;99.90;;;;;;5092361;28;20421;-45
2024/01/19 02:42:31;;;;;;;36.23;15.53;;;-1.40;99.90;;;;;;5076073;28;20592;-44
2024/01/19 02:44:59;;;;;;;30.53;13.53;;;-1.40;99.90;;;;;;5093726;28;20455;-44
2024/01/19 02:47:28;;;;;;;30.83;13.47;;;-1.30;99.90;;;;;;5093677;28;20203;-44
2024/01/19 02:49:54;;;;;;;35.67;15.07;;;-1.30;99.90;;;;;;5092596;28;20423;-46
2024/01/19 02:52:20;;;;;;;28.73;14.80;;;-1.30;99.90;;;;;;5093828;28;20407;-43
2024/01/19 02:54:55;;;;;;;31.93;14.80;;;-1.30;99.90;;;;;;5075318;28;20175;-44
2024/01/19 02:57:25;;;;;;;28.40;12.40;;;-1.20;99.90;;;;;;5093600;28;20190;-44
2024/01/19 02:59:50;;;;;;;32.73;14.43;;;-1.20;99.90;;;;;;5092019;28;20491;-46
2024/01/19 03:02:16;;;;;;;29.97;13.27;;;-1.20;99.90;;;;;;5075331;28;20988;-46
2024/01/19 03:04:45;;;;;;;33.80;14.90;;;-1.10;99.90;;;;;;5093343;28;20494;-45
2024/01/19 03:07:12;;;;;;;26.70;10.93;;;-1.10;99.90;;;;;;5092054;28;20347;-45
2024/01/19 03:09:38;;;;;;;35.13;15.00;;;-1.10;99.90;;;;;;5093666;28;20418;-46
2024/01/19 03:12:04;;;;;;;28.27;13.10;;;-1.00;99.90;;;;;;5093278;28;20412;-46
2024/01/19 03:14:33;;;;;;;28.50;14.27;;;-1.00;99.90;;;;;;5093257;28;20234;-43
2024/01/19 03:16:58;;;;;;;38.13;15.13;;;-1.00;99.90;;;;;;5092002;28;20444;-44
2024/01/19 03:19:24;;;;;;;32.23;13.90;;;-1.00;99.90;;;;;;5093460;28;20430;-44
2024/01/19 03:21:50;;;;;;;27.17;12.97;;;-1.00;99.90;;;;;;5093510;28;20212;-48
2024/01/19 03:24:16;;;;;;;29.00;13.13;;;-1.00;99.90;;;;;;5093567;28;20171;-48
2024/01/19 03:26:42;;;;;;;32.30;14.40;;;-1.00;99.90;;;;;;5092253;28;20828;-49
2024/01/19 03:29:12;;;;;;;32.30;14.30;;;-0.90;99.90;;;;;;5091861;28;20512;-48
2024/01/19 03:31:43;;;;;;;33.50;14.40;;;-0.90;99.90;;;;;;5092084;28;20205;-48
2024/01/19 03:34:09;;;;;;;38.63;17.27;;;-0.90;99.90;;;;;;5093500;28;20401;-48
2024/01/19 03:36:35;;;;;;;38.60;16.83;;;-0.90;99.90;;;;;;5092064;28;20450;-49
2024/01/19 03:39:02;;;;;;;32.37;13.83;;;-0.90;99.90;;;;;;5094892;28;20180;-48
2024/01/19 03:41:27;;;;;;;37.17;13.53;;;-0.90;99.90;;;;;;5078456;28;20428;-49
2024/01/19 03:43:53;;;;;;;33.20;15.30;;;-0.90;99.90;;;;;;5096816;28;20491;-49
2024/01/19 03:46:19;;;;;;;28.83;14.60;;;-0.90;99.90;;;;;;5096789;28;20210;-48
2024/01/19 03:48:47;;;;;;;34.40;15.40;;;-0.80;99.90;;;;;;5096695;28;20212;-49
2024/01/19 03:51:13;;;;;;;32.37;14.17;;;-0.80;99.90;;;;;;5097033;28;20176;-48
2024/01/19 03:53:43;;;;;;;33.13;15.23;;;-0.80;99.90;;;;;;5095363;28;20800;-49
2024/01/19 03:56:10;;;;;;;30.33;13.20;;;-0.80;99.90;;;;;;5096584;28;20667;-48
2024/01/19 03:58:40;;;;;;;34.47;14.43;;;-0.70;99.90;;;;;;5096919;28;20426;-48
2024/01/19 04:01:08;;;;;;;27.23;13.40;;;-0.80;99.90;;;;;;5097058;28;20420;-48
2024/01/19 04:03:40;;;;;;;26.27;11.73;;;-0.70;99.90;;;;;;5097499;28;20501;-48
2024/01/19 04:06:05;;;;;;;25.43;12.23;;;-0.70;99.90;;;;;;5095141;28;20449;-48
2024/01/19 04:08:31;;;;;;;28.90;14.60;;;-0.70;99.90;;;;;;5094994;28;20828;-48
2024/01/19 04:11:00;;;;;;;28.03;14.00;;;-0.70;99.90;;;;;;5095083;28;20196;-49
2024/01/19 04:13:29;;;;;;;21.00;8.97;;;-0.70;99.90;;;;;;5096334;28;20260;-48
2024/01/19 04:15:55;;;;;;;27.30;12.93;;;-0.70;99.90;;;;;;5094822;28;20456;-47
2024/01/19 04:18:26;;;;;;;23.33;11.30;;;-0.70;99.90;;;;;;5096279;28;20414;-49
2024/01/19 04:20:52;;;;;;;23.10;11.67;;;-0.70;99.90;;;;;;5095171;28;20742;-47
2024/01/19 04:23:19;;;;;;;27.73;9.37;;;-0.70;99.90;;;;;;5095988;28;20416;-48
2024/01/19 04:25:45;;;;;;;22.33;11.20;;;-0.70;99.90;;;;;;5094524;28;20219;-47
2024/01/19 04:28:10;;;;;;;18.63;10.07;;;-0.70;99.90;;;;;;5095875;28;20542;-47
2024/01/19 04:30:42;;;;;;;21.83;10.93;;;-0.70;99.90;;;;;;5095979;28;20632;-48
2024/01/19 04:33:11;;;;;;;24.00;12.03;;;-0.70;99.90;;;;;;5096080;28;20177;-48
2024/01/19 04:35:37;;;;;;;22.17;11.47;;;-0.70;99.90;;;;;;5095863;28;20429;-48
2024/01/19 04:38:04;;;;;;;20.87;11.53;;;-0.70;99.90;;;;;;5094779;28;20879;-46
2024/01/19 04:40:30;;;;;;;23.20;11.67;;;-0.80;99.90;;;;;;5094475;28;20191;-49
2024/01/19 04:42:55;;;;;;;22.30;12.47;;;-0.80;99.90;;;;;;5095929;28;20427;-47
2024/01/19 04:45:24;;;;;;;20.53;10.67;;;-0.80;99.90;;;;;;5094283;28;20290;-49
2024/01/19 04:47:51;;;;;;;6.00;3.07;;;-0.80;99.90;;;;;;5094532;28;20217;-48
2024/01/19 04:50:17;;;;;;;19.77;9.80;;;-0.90;99.90;;;;;;5093951;28;20518;-48
2024/01/19 04:52:43;;;;;;;21.00;10.53;;;-0.90;99.90;;;;;;5095520;28;20520;-49
2024/01/19 04:55:12;;;;;;;22.37;11.70;;;-0.90;99.90;;;;;;5095675;28;20282;-47
2024/01/19 04:57:37;;;;;;;23.77;10.13;;;-0.80;99.90;;;;;;5095654;28;20249;-48
2024/01/19 05:00:05;;;;;;;24.27;12.63;;;-0.90;99.90;;;;;;5094064;28;20932;-47
2024/01/19 05:02:32;;;;;;;23.87;11.93;;;-0.90;99.90;;;;;;5077200;28;20240;-46
2024/01/19 05:04:59;;;;;;;20.83;11.03;;;-0.80;99.90;;;;;;5095160;28;20451;-48
2024/01/19 05:07:26;;;;;;;19.83;8.33;;;-0.80;99.90;;;;;;5095028;28;20506;-46
2024/01/19 05:09:55;;;;;;;25.80;12.07;;;-0.80;99.90;;;;;;5095085;28;20417;-47
2024/01/19 05:12:21;;;;;;;27.77;12.10;;;-0.80;99.90;;;;;;5095200;28;20407;-47
2024/01/19 05:14:50;;;;;;;27.13;12.27;;;-0.80;99.90;;;;;;5093864;28;20473;-49
2024/01/19 05:17:17;;;;;;;20.47;9.37;;;-0.90;99.90;;;;;;5093792;28;20535;-48
2024/01/19 05:19:43;;;;;;;23.40;12.43;;;-0.90;99.90;;;;;;5093738;28;20424;-48
2024/01/19 05:22:13;;;;;;;25.17;12.97;;;-0.90;99.90;;;;;;5076888;28;20436;-48
2024/01/19 05:24:42;;;;;;;24.13;11.73;;;-1.00;99.90;;;;;;5095146;28;20176;-48
2024/01/19 05:27:09;;;;;;;28.83;13.30;;;-1.00;99.90;;;;;;5094528;28;20860;-48
2024/01/19 05:29:35;;;;;;;22.37;11.80;;;-1.10;99.90;;;;;;5094744;28;20773;-48
2024/01/19 05:32:01;;;;;;;27.77;11.87;;;-1.10;99.90;;;;;;5093521;28;20425;-47
2024/01/19 05:34:27;;;;;;;25.27;13.70;;;-1.10;99.90;;;;;;5093378;28;20195;-46
2024/01/19 05:36:53;;;;;;;23.80;11.40;;;-1.10;99.90;;;;;;5094603;28;20501;-47
2024/01/19 05:39:19;;;;;;;23.40;12.03;;;-1.20;99.90;;;;;;5094599;28;20172;-47
2024/01/19 05:41:45;;;;;;;26.10;12.53;;;-1.30;99.90;;;;;;5094785;28;20814;-49
2024/01/19 05:44:18;;;;;;;21.10;10.43;;;-1.40;99.90;;;;;;5094627;28;20593;-47
2024/01/19 05:46:44;;;;;;;23.53;12.30;;;-1.50;99.90;;;;;;5094777;28;20199;-48
2024/01/19 05:49:11;;;;;;;22.93;11.00;;;-1.60;99.90;;;;;;5093121;28;20543;-48
2024/01/19 05:51:37;;;;;;;27.97;13.27;;;-1.70;99.90;;;;;;5094682;28;20176;-49
2024/01/19 05:54:05;;;;;;;29.73;13.20;;;-1.80;99.90;;;;;;5076358;28;20834;-49
2024/01/19 05:56:32;;;;;;;30.13;13.40;;;-1.90;99.90;;;;;;5094480;28;20203;-48
2024/01/19 05:58:57;;;;;;;27.73;13.07;;;-2.00;99.90;;;;;;5094503;28;20413;-49
2024/01/19 06:01:23;;;;;;;33.73;14.40;;;-2.10;99.90;;;;;;5093886;28;20183;-48
2024/01/19 06:03:49;;;;;;;24.83;13.07;;;-2.10;99.90;;;;;;5093984;28;20197;-48
2024/01/19 06:06:15;;;;;;;24.53;13.03;;;-2.20;99.90;;;;;;5093114;28;20279;-48
2024/01/19 06:08:40;;;;;;;29.00;13.97;;;-2.20;99.90;;;;;;5092795;28;20670;-49
2024/01/19 06:11:06;;;;;;;28.63;12.90;;;-2.20;99.90;;;;;;5094231;28;20163;-48
2024/01/19 06:13:32;;;;;;;24.90;12.30;;;-2.30;99.90;;;;;;5092719;28;20206;-48
2024/01/19 06:15:57;;;;;;;21.87;12.17;;;-2.40;99.90;;;;;;5092658;28;20246;-49
2024/01/19 06:18:23;;;;;;;29.23;14.87;;;-2.40;99.90;;;;;;5094304;28;20176;-47
2024/01/19 06:20:52;;;;;;;31.60;15.00;;;-2.40;99.90;;;;;;5093826;28;20675;-48
2024/01/19 06:23:19;;;;;;;34.10;15.87;;;-2.50;99.90;;;;;;5093743;28;20667;-46
2024/01/19 06:25:44;;;;;;;25.87;14.00;;;-2.50;99.90;;;;;;5093859;28;20439;-48
2024/01/19 06:28:10;;;;;;;30.87;14.63;;;-2.60;99.90;;;;;;5093686;28;20548;-48
2024/01/19 06:30:37;;;;;;;28.70;13.53;;;-2.60;99.90;;;;;;5093981;28;20206;-47
2024/01/19 06:33:05;;;;;;;31.10;14.43;;;-2.50;99.90;;;;;;5094482;28;20402;-49
2024/01/19 06:35:31;;;;;;;25.40;12.83;;;-2.50;99.90;;;;;;5092348;28;20445;-48
2024/01/19 06:38:01;;;;;;;32.60;15.27;;;-2.30;99.90;;;;;;5094186;28;20427;-48
2024/01/19 06:40:29;;;;;;;24.60;13.07;;;-2.30;99.90;;;;;;5093923;28;20436;-49
2024/01/19 06:42:54;;;;;;;27.17;12.83;;;-2.20;99.90;;;;;;5090826;28;20443;-48
2024/01/19 06:45:20;;;;;;;24.83;13.60;;;-2.10;99.90;;;;;;5092246;28;20957;-47
2024/01/19 06:47:46;;;;;;;33.93;15.37;;;-2.10;99.90;;;;;;5093510;28;20198;-48
2024/01/19 06:50:12;;;;;;;26.93;13.30;;;-2.00;99.90;;;;;;5093832;28;20240;-47
2024/01/19 06:52:44;;;;;;;28.40;12.33;;;-1.90;99.90;;;;;;5092290;28;20171;-47
2024/01/19 06:55:10;;;;;;;35.97;14.47;;;-1.80;99.90;;;;;;5093693;28;20221;-49
2024/01/19 06:57:38;;;;;;;26.20;11.80;;;-1.80;99.90;;;;;;5093400;28;20917;-47
2024/01/19 07:00:05;;;;;;;30.63;14.00;;;-1.70;99.90;;;;;;5093677;28;20258;-49
2024/01/19 07:02:30;;;;;;;26.50;14.07;;;-1.70;99.90;;;;;;5091958;28;20440;-47
2024/01/19 07:05:12;;;;;;;18.63;11.30;;;-1.60;99.90;;;;;;5092036;28;20428;-48
2024/01/19 07:07:38;;;;;;;21.17;11.30;;;-1.60;99.90;;;;;;5093545;28;20225;-49
2024/01/19 07:10:04;;;;;;;30.73;12.53;;;-1.60;99.90;;;;;;5092018;28;20402;-48
2024/01/19 07:12:31;;;;;;;24.60;13.70;;;-1.60;99.90;;;;;;5092743;28;20197;-49
2024/01/19 07:15:10;;;;;;;29.20;13.13;;;-1.50;99.90;;;;;;5097568;28;20409;-48
2024/01/19 07:17:35;;;;;;;28.47;13.03;;;-1.50;99.90;;;;;;5096115;28;20430;-47
2024/01/19 07:20:03;;;;;;;27.27;14.17;;;-1.50;99.90;;;;;;5097346;28;20501;-49
2024/01/19 07:22:29;;;;;;;22.00;10.37;;;-1.50;99.90;;;;;;5097187;28;20242;-46
2024/01/19 07:25:09;;;;;;;27.97;13.73;;;-1.50;99.90;;;;;;5096446;28;20893;-48
2024/01/19 07:27:35;;;;;;;28.17;13.90;;;-1.50;99.90;;;;;;5096204;28;20543;-49
2024/01/19 07:30:11;;;;;;;19.13;10.43;;;-1.50;99.90;;;;;;5097414;28;20501;-47
2024/01/19 07:32:37;;;;;;;25.67;13.27;;;-1.40;99.90;;;;;;5095841;28;20183;-49
2024/01/19 07:35:03;;;;;;;25.63;12.53;;;-1.40;99.90;;;;;;5096025;28;20439;-47
2024/01/19 07:37:32;;;;;;;26.90;12.43;;;-1.40;99.90;;;;;;5097281;28;20167;-48
2024/01/19 07:39:58;;;;;;;26.50;14.37;;;-1.50;99.90;;;;;;5096948;28;20414;-48
2024/01/19 07:42:27;;;;;;;25.17;12.23;;;-1.50;99.90;;;;;;5095672;28;20879;-49
2024/01/19 07:44:53;;;;;;;26.97;12.53;;;-1.50;99.90;;;;;;5097093;28;20588;-48
2024/01/19 07:47:18;;;;;;;27.83;11.13;;;-1.60;99.90;;;;;;5097027;28;20423;-48
2024/01/19 07:49:44;;;;;;;22.63;11.77;;;-1.50;99.90;;;;;;5078710;28;20278;-49
2024/01/19 07:52:10;;;;;;;30.50;14.53;;;-1.60;99.90;;;;;;5095522;28;20236;-48
2024/01/19 07:54:38;;;;;;;28.03;14.10;;;-1.60;99.90;;;;;;5096631;28;20266;-48
2024/01/19 07:57:16;;;;;;;24.73;13.60;;;-1.60;99.90;;;;;;5095855;28;20207;-47
2024/01/19 07:59:43;;;;;;;29.70;15.97;;;-1.70;99.90;;;;;;5096772;28;20393;-48
2024/01/19 08:02:09;;;;;;;31.90;16.33;;;-1.70;99.90;;;;;;5095058;28;20435;-47
2024/01/19 08:04:38;;;;;;;29.90;14.40;;;-1.80;99.90;;;;;;5095395;28;20739;-49
2024/01/19 08:07:04;;;;;;;25.80;12.27;;;-1.90;99.90;;;;;;5095585;28;20574;-47
2024/01/19 08:09:30;;;;;;;29.20;15.47;;;-2.00;99.90;;;;;;5096544;28;20467;-48
2024/01/19 08:11:56;;;;;;;32.27;16.17;;;-2.00;99.90;;;;;;5078888;28;20413;-48
2024/01/19 08:14:21;;;;;;;32.57;15.80;;;-2.10;99.90;;;;;;5095145;28;20183;-46
2024/01/19 08:16:47;;;;;;;30.53;15.67;;;-2.10;99.90;;;;;;5094907;28;20199;-48
2024/01/19 08:20:10;;;;;;;32.83;15.07;;;-2.20;99.90;;;;;;5094950;28;20192;-47
2024/01/19 08:22:36;;;;;;;32.53;15.23;;;-2.20;99.90;;;;;;5096646;28;20171;-45
2024/01/19 08:25:05;;;;;;;33.67;16.03;;;-2.30;99.90;;;;;;5077011;28;20518;-48
2024/01/19 08:27:30;;;;;;;28.77;14.30;;;-2.30;99.90;;;;;;5094432;28;20565;-48
2024/01/19 08:29:58;;;;;;;35.77;16.50;;;-2.30;99.90;;;;;;5096066;28;20443;-47
2024/01/19 08:32:23;;;;;;;31.07;15.47;;;-2.30;99.90;;;;;;5094919;28;20217;-49
2024/01/19 08:34:49;;;;;;;36.50;16.40;;;-2.30;99.90;;;;;;5096231;28;20406;-49
2024/01/19 08:37:15;;;;;;;37.73;17.23;;;-2.30;99.90;;;;;;5096094;28;20201;-46
2024/01/19 08:39:43;;;;;;;36.10;17.87;;;-2.30;99.90;;;;;;5095753;28;20418;-48
2024/01/19 08:42:09;;;;;;;26.50;12.90;;;-2.20;99.90;;;;;;5094809;28;20896;-46
2024/01/19 08:44:43;;;;;;;31.40;15.53;;;-2.10;99.90;;;;;;5096092;28;20413;-50
2024/01/19 08:47:08;;;;;;;31.37;15.03;;;-2.10;99.90;;;;;;5095599;28;20191;-49
2024/01/19 08:49:34;;;;;;;28.40;15.00;;;-2.10;99.90;;;;;;5094347;28;20465;-49
2024/01/19 08:52:00;;;;;;;26.23;13.73;;;-2.10;99.90;;;;;;5094256;28;20247;-49
2024/01/19 08:54:26;;;;;;;30.33;14.87;;;-2.00;99.90;;;;;;5094251;28;20212;-47
2024/01/19 08:56:51;;;;;;;36.57;17.20;;;-1.90;99.90;;;;;;5095998;28;20231;-48
2024/01/19 08:59:19;;;;;;;34.77;17.87;;;-1.90;99.90;;;;;;5077277;28;20554;-48
2024/01/19 09:01:46;;;;;;;29.00;15.50;;;-1.80;99.90;;;;;;5077017;28;20219;-48
2024/01/19 09:04:12;;;;;;;31.97;15.40;;;-1.80;99.90;;;;;;5094179;28;20416;-47
2024/01/19 09:06:38;;;;;;;30.23;14.53;;;-1.70;99.90;;;;;;5094019;28;20479;-49
2024/01/19 09:09:17;;;;;;;30.03;13.30;;;-1.70;99.90;;;;;;5096125;28;20691;-49
2024/01/19 09:11:43;;;;;;;30.43;15.10;;;-1.70;99.90;;;;;;5095141;28;20407;-49
2024/01/19 09:14:10;;;;;;;31.23;13.80;;;-1.60;99.90;;;;;;5095111;28;20413;-47
2024/01/19 09:16:36;;;;;;;29.67;13.73;;;-1.60;99.90;;;;;;5094948;28;20255;-48
2024/01/19 09:19:03;;;;;;;34.10;14.70;;;-1.50;99.90;;;;;;5094948;28;20483;-48
2024/01/19 09:21:32;;;;;;;32.63;14.53;;;-1.50;99.90;;;;;;5095259;28;20501;-48
2024/01/19 09:23:58;;;;;;;37.63;16.97;;;-1.40;99.90;;;;;;5094879;28;20428;-48
2024/01/19 09:26:25;;;;;;;38.00;14.77;;;-1.40;99.90;;;;;;5093899;28;20454;-47
2024/01/19 09:28:51;;;;;;;38.80;17.20;;;-1.30;99.90;;;;;;5095087;28;20209;-49
2024/01/19 09:31:18;;;;;;;34.87;16.00;;;-1.20;99.90;;;;;;5093512;28;20547;-48
2024/01/19 09:33:47;;;;;;;32.00;14.40;;;-1.20;99.90;;;;;;5094838;28;20186;-48
2024/01/19 09:36:13;;;;;;;29.93;13.53;;;-1.20;99.90;;;;;;5094120;28;20445;-48
2024/01/19 09:38:40;;;;;;;33.50;15.30;;;-1.10;99.90;;;;;;5093310;28;20431;-48
2024/01/19 09:41:26;;;;;;;37.23;16.87;;;-1.10;99.90;;;;;;5095126;28;20185;-48
2024/01/19 09:43:58;;;;;;;28.63;15.40;;;-1.10;99.90;;;;;;5094474;28;20403;-47
2024/01/19 09:46:29;;;;;;;33.87;17.07;;;-1.00;99.90;;;;;;5092814;28;20449;-48
2024/01/19 09:49:05;;;;;;;37.33;17.13;;;-1.00;99.90;;;;;;5093862;28;20476;-49
2024/01/19 09:51:59;;;;;;;33.40;16.57;;;-0.90;99.90;;;;;;5096740;28;20474;-48
2024/01/19 09:54:33;;;;;;;40.40;16.87;;;-0.80;99.90;;;;;;5084901;28;20429;-46
2024/01/19 09:57:48;;;;;;;33.73;14.87;;;-0.80;99.90;;;;;;5092925;28;20514;-48
2024/01/19 10:00:20;;;;;;;31.93;17.00;;;-0.70;99.90;;;;;;5093038;28;20421;-47
2024/01/19 10:02:47;;;;;;;37.33;17.07;;;-0.70;99.90;;;;;;5093225;28;20932;-48
2024/01/19 10:05:16;;;;;;;41.53;17.43;;;-0.60;99.90;;;;;;5092714;28;20865;-48
2024/01/19 10:07:45;;;;;;;36.57;18.17;;;-0.60;99.90;;;;;;5092806;28;20476;-46
2024/01/19 10:10:12;;;;;;;30.07;14.00;;;-0.50;99.90;;;;;;5093499;28;20946;-49
2024/01/19 10:12:39;;;;;;;29.23;13.90;;;-0.50;99.90;;;;;;5094333;28;20420;-44
2024/01/19 10:15:15;;;;;;;37.30;17.87;;;-0.40;99.90;;;;;;5093902;28;20419;-42
2024/01/19 10:17:44;;;;;;;34.03;16.53;;;-0.40;99.90;;;;;;5093139;28;20445;-44
2024/01/19 10:20:12;;;;;;;32.37;16.93;;;-0.30;99.90;;;;;;5093012;28;20419;-44
2024/01/19 10:23:24;;;;;;;37.83;17.00;;;-0.30;99.90;;;;;;5092910;28;20431;-45
2024/01/19 10:26:16;;;;;;;32.20;16.07;;;-0.30;99.90;;;;;;5093719;28;20945;-44
2024/01/19 10:28:42;;;;;;;34.27;16.00;;;-0.30;99.90;;;;;;5093827;28;20461;-47
2024/01/19 10:31:19;;;;;;;39.83;18.03;;;-0.30;99.90;;;;;;5092813;28;20415;-44
2024/01/19 10:34:00;;;;;;;35.10;16.20;;;-0.30;99.90;;;;;;5093881;28;20183;-44
2024/01/19 10:36:50;;;;;;;36.33;16.70;;;-0.30;99.90;;;;;;5093117;28;20525;-45
2024/01/19 10:39:29;;;;;;;37.03;16.33;;;-0.20;99.90;;;;;;5093658;28;20854;-44
2024/01/19 10:42:08;;;;;;;38.00;17.27;;;-0.20;99.90;;;;;;5092268;28;20954;-45
2024/01/19 10:44:34;;;;;;;30.07;16.10;;;-0.20;99.90;;;;;;5093519;28;20761;-43
2024/01/19 10:47:00;;;;;;;39.93;16.87;;;-0.20;99.90;;;;;;5093051;28;20440;-43
2024/01/19 10:49:27;;;;;;;27.97;12.90;;;-0.20;99.90;;;;;;5093646;28;20214;-44
2024/01/19 10:51:55;;;;;;;35.40;17.47;;;-0.20;99.90;;;;;;5092263;28;20451;-45
2024/01/19 10:54:29;;;;;;;35.67;16.10;;;-0.20;99.90;;;;;;5092275;28;20502;-44
2024/01/19 10:57:05;;;;;;;30.93;14.37;;;-0.20;99.90;;;;;;5093761;28;20439;-44
2024/01/19 10:59:32;;;;;;;41.57;18.00;;;-0.20;99.90;;;;;;5093236;28;20421;-43
2024/01/19 11:02:04;;;;;;;33.93;17.20;;;-0.20;99.90;;;;;;5091983;28;20463;-45
2024/01/19 11:04:32;;;;;;;34.17;17.97;;;-0.20;99.90;;;;;;5092598;28;20177;-45
2024/01/19 11:06:58;;;;;;;35.10;17.10;;;-0.20;99.90;;;;;;5092389;28;20597;-46
2024/01/19 11:09:24;;;;;;;32.53;16.07;;;-0.10;99.90;;;;;;5093565;28;20256;-44
2024/01/19 11:11:54;;;;;;;34.03;16.37;;;-0.10;99.90;;;;;;5093258;28;20584;-45
2024/01/19 11:14:24;;;;;;;36.07;16.63;;;-0.10;99.90;;;;;;5093981;28;20459;-43
2024/01/19 11:16:57;;;;;;;36.20;17.10;;;0.00;99.90;;;;;;5091931;28;20464;-43
2024/01/19 11:19:26;;;;;;;39.00;17.90;;;0.00;99.90;;;;;;5093654;28;20957;-44
2024/01/19 11:21:52;;;;;;;37.13;17.83;;;0.10;99.90;;;;;;5092139;28;20449;-45
2024/01/19 11:24:21;;;;;;;33.43;18.07;;;0.10;99.90;;;;;;5092225;28;20668;-45
2024/01/19 11:27:18;;;;;;;30.90;16.43;;;0.10;99.90;;;;;;5092699;28;20600;-44
2024/01/19 11:29:54;;;;;;;36.27;17.50;;;0.20;99.90;;;;;;5093129;28;20402;-43
2024/01/19 11:32:20;;;;;;;32.07;17.33;;;0.20;99.90;;;;;;5093237;28;20854;-43
2024/01/19 11:34:50;;;;;;;38.23;18.20;;;0.20;99.90;;;;;;5091767;28;20455;-44
2024/01/19 11:37:53;;;;;;;32.57;18.60;;;0.30;99.90;;;;;;5093232;28;20201;-45
2024/01/19 11:40:32;;;;;;;34.43;17.27;;;0.30;99.90;;;;;;5093277;28;20173;-44
2024/01/19 11:42:58;;;;;;;38.40;17.60;;;0.40;99.90;;;;;;5094050;28;20190;-45
2024/01/19 11:45:40;;;;;;;30.73;15.60;;;0.50;99.90;;;;;;5091629;28;20440;-48
2024/01/19 11:48:07;;;;;;;32.10;16.47;;;0.50;99.90;;;;;;5091661;28;20701;-50
2024/01/19 11:50:43;;;;;;;32.43;15.53;;;0.60;99.90;;;;;;5093813;28;20685;-46
2024/01/19 11:53:13;;;;;;;32.30;15.23;;;0.70;99.90;;;;;;5092964;28;20188;-48
2024/01/19 11:55:49;;;;;;;34.10;15.13;;;0.60;99.90;;;;;;5093114;28;20490;-47
2024/01/19 11:58:40;;;;;;;27.67;15.03;;;0.70;99.90;;;;;;5093011;28;20242;-49
2024/01/19 12:01:07;;;;;;;32.77;17.30;;;0.70;99.90;;;;;;5078066;28;20286;-48
2024/01/19 12:03:33;;;;;;;42.97;16.50;;;0.80;99.90;;;;;;5095271;28;20228;-47
2024/01/19 12:06:01;;;;;;;36.27;16.07;;;0.80;99.90;;;;;;5095580;28;20203;-48
2024/01/19 12:08:30;;;;;;;35.73;17.07;;;0.90;99.90;;;;;;5096325;28;20247;-48
2024/01/19 12:11:06;;;;;;;30.93;15.87;;;0.90;99.90;;;;;;5096838;28;20174;-48
2024/01/19 12:13:33;;;;;;;29.00;15.57;;;0.90;99.90;;;;;;5096663;28;20634;-49
2024/01/19 12:16:04;;;;;;;32.10;15.73;;;1.00;99.90;;;;;;5096193;28;20245;-48
2024/01/19 12:18:33;;;;;;;30.13;17.00;;;1.00;99.90;;;;;;5097624;28;20163;-49
2024/01/19 12:20:59;;;;;;;32.93;16.23;;;1.00;99.90;;;;;;5097087;28;20177;-49
2024/01/19 12:23:25;;;;;;;34.37;16.87;;;1.00;99.90;;;;;;5097723;28;20540;-49
2024/01/19 12:25:58;;;;;;;33.40;16.00;;;1.00;99.90;;;;;;5097323;28;20191;-49
2024/01/19 12:28:33;;;;;;;34.67;16.07;;;1.10;99.90;;;;;;5096636;28;20599;-49
2024/01/19 12:31:28;;;;;;;32.70;16.47;;;1.10;99.90;;;;;;5097499;28;20179;-49
2024/01/19 12:33:53;;;;;;;33.13;14.77;;;1.10;99.90;;;;;;5098575;28;20162;-49
2024/01/19 12:36:26;;;;;;;30.80;15.47;;;1.20;99.90;;;;;;5098175;28;20203;-49